Time;durP1;ratioP1;P1;durP2;ratioP2;P2;SDS_P1;SDS_P2;PMS_P1;PMS_P2;Temp;Humidity;BMP_temperature;BMP_pressure;BME280_temperature;BME280_humidity;BME280_pressure;Samples;Min_cycle;Max_cycle;Signal;HPM_P1;HPM_P2
2021/08/24 00:00:27;;;;;;;3.95;2.65;;;13.70;99.90;;;15.21;93.30;101574.78;6159933;23;20009;-90
2021/08/24 00:02:55;;;;;;;3.58;2.22;;;13.70;99.90;;;15.15;93.63;101581.88;6159579;23;20088;-88
2021/08/24 00:05:38;;;;;;;4.05;2.75;;;13.60;99.90;;;15.08;93.76;101571.28;6162310;23;20061;-89
2021/08/24 00:08:07;;;;;;;3.88;2.15;;;13.60;99.90;;;15.07;93.74;101566.81;6160362;23;20014;-90
2021/08/24 00:10:54;;;;;;;3.45;2.22;;;13.50;99.90;;;15.04;93.67;101572.34;6189915;23;20018;-85
2021/08/24 00:13:23;;;;;;;8.23;2.75;;;13.50;99.90;;;15.05;93.11;101569.19;6163549;23;20044;-87
2021/08/24 00:15:51;;;;;;;4.32;2.33;;;13.50;99.90;;;15.08;93.04;101576.91;6186411;23;20474;-88
2021/08/24 00:18:19;;;;;;;5.60;2.90;;;13.50;99.90;;;15.08;92.87;101574.09;6185828;23;20325;-86
2021/08/24 00:20:51;;;;;;;5.28;2.40;;;13.50;99.90;;;15.11;92.30;101578.97;6185836;23;20013;-88
2021/08/24 00:23:23;;;;;;;3.90;2.20;;;13.50;99.90;;;15.16;91.33;101577.84;6184131;23;20013;-88
2021/08/24 00:25:53;;;;;;;4.05;2.50;;;13.60;99.90;;;15.21;91.08;101575.59;6184565;23;20041;-90
2021/08/24 00:28:21;;;;;;;3.78;2.38;;;13.60;99.90;;;15.27;90.24;101578.94;6160280;23;20352;-86
2021/08/24 00:30:48;;;;;;;5.50;2.38;;;13.70;99.90;;;15.27;89.99;101576.13;6183565;23;20010;-90
2021/08/24 00:33:17;;;;;;;5.30;2.40;;;13.70;99.90;;;15.25;89.94;101581.31;6157793;23;20017;-89
2021/08/24 00:35:45;;;;;;;6.78;2.47;;;13.70;99.90;;;15.24;90.29;101585.28;6158181;23;20064;-89
2021/08/24 00:38:19;;;;;;;3.70;2.28;;;13.70;99.90;;;15.22;90.21;101570.75;6182335;23;20202;-87
2021/08/24 00:41:03;;;;;;;3.92;2.55;;;13.60;99.90;;;15.15;90.99;101579.88;6157975;23;20092;-85
2021/08/24 00:43:34;;;;;;;3.05;1.88;;;13.60;99.90;;;15.03;90.97;101577.16;6157027;23;20009;-85
2021/08/24 00:46:43;;;;;;;5.38;2.30;;;13.50;99.90;;;14.90;91.16;101580.47;6182939;23;20040;-89
2021/08/24 00:49:22;;;;;;;5.15;2.50;;;13.40;99.90;;;14.81;91.49;101580.63;6158716;23;20019;-87
2021/08/24 00:52:07;;;;;;;3.92;2.10;;;13.30;99.90;;;14.77;91.59;101582.53;6155926;23;20053;-87
2021/08/24 00:54:35;;;;;;;3.97;2.40;;;13.20;99.90;;;14.73;91.75;101576.03;6157804;23;20009;-86
2021/08/24 00:57:13;;;;;;;3.90;2.08;;;13.20;99.90;;;14.66;92.49;101573.03;6156013;23;20009;-86
2021/08/24 00:59:40;;;;;;;6.72;2.38;;;13.10;99.90;;;14.57;92.51;101575.22;6183726;23;20347;-88
2021/08/24 01:02:10;;;;;;;4.38;2.38;;;13.00;99.90;;;14.57;92.10;101570.44;6158410;23;20076;-87
2021/08/24 01:04:38;;;;;;;2.97;2.20;;;13.10;99.90;;;14.57;92.30;101575.22;6156864;23;20006;-87
2021/08/24 01:07:26;;;;;;;3.03;2.28;;;13.00;99.90;;;14.60;91.83;101572.50;6157093;23;20017;-88
2021/08/24 01:10:17;;;;;;;5.68;2.80;;;13.10;99.90;;;14.67;91.35;101578.28;6180821;23;20040;-84
2021/08/24 01:13:05;;;;;;;4.70;2.22;;;13.10;99.90;;;14.63;91.24;101580.22;6156102;23;20013;-89
2021/08/24 01:15:58;;;;;;;2.63;2.08;;;13.10;99.90;;;14.53;91.52;101582.75;6180903;23;20160;-86
2021/08/24 01:19:04;;;;;;;5.10;2.88;;;13.00;99.90;;;14.40;92.03;101581.19;6155643;23;20041;-86
2021/08/24 01:22:04;;;;;;;3.60;2.38;;;12.90;99.90;;;14.30;92.19;101581.69;6156610;23;20005;-84
2021/08/24 01:25:03;;;;;;;4.78;2.25;;;12.80;99.90;;;14.14;92.84;101579.69;6180814;23;20013;-88
2021/08/24 01:27:59;;;;;;;4.00;2.08;;;12.70;99.90;;;14.06;93.08;101577.06;6155980;23;20006;-88
2021/08/24 01:30:48;;;;;;;4.82;2.35;;;12.60;99.90;;;13.95;93.72;101573.13;6156847;23;20010;-86
2021/08/24 01:33:44;;;;;;;3.92;2.15;;;12.50;99.90;;;13.88;93.82;101579.34;6181007;23;20043;-87
2021/08/24 01:36:20;;;;;;;3.22;2.33;;;12.40;99.90;;;13.80;94.25;101577.53;6156640;23;20060;-89
2021/08/24 01:39:02;;;;;;;6.05;2.67;;;12.30;99.90;;;13.78;95.16;101579.03;6180351;23;20486;-88
2021/08/24 01:42:11;;;;;;;3.55;2.20;;;12.30;99.90;;;13.73;95.88;101580.94;6155921;23;20005;-86
2021/08/24 01:45:20;;;;;;;3.83;2.15;;;12.20;99.90;;;13.71;95.47;101582.47;6155528;23;20001;-86
2021/08/24 01:48:16;;;;;;;6.35;2.45;;;12.20;99.90;;;13.66;95.72;101577.94;6155170;23;20420;-89
2021/08/24 01:51:01;;;;;;;2.78;2.10;;;12.20;99.90;;;13.60;96.27;101586.97;6155390;23;20339;-87
2021/08/24 01:53:42;;;;;;;4.88;2.53;;;12.10;99.90;;;13.59;96.22;101591.75;6155221;23;20037;-87
2021/08/24 01:56:22;;;;;;;4.25;2.50;;;12.10;99.90;;;13.55;96.47;101595.66;6155033;23;20009;-87
2021/08/24 01:59:05;;;;;;;5.45;2.40;;;12.00;99.90;;;13.54;96.76;101585.56;6155888;23;20013;-87
2021/08/24 02:02:01;;;;;;;4.47;2.42;;;12.00;99.90;;;13.55;96.98;101588.00;6156076;23;20013;-85
2021/08/24 02:05:09;;;;;;;4.78;2.58;;;12.10;99.90;;;13.57;97.16;101596.09;6157971;23;20001;-89
2021/08/24 02:07:36;;;;;;;4.03;2.78;;;12.10;99.90;;;13.51;96.94;101594.72;6156523;23;20271;-89
2021/08/24 02:10:17;;;;;;;4.25;2.80;;;12.00;99.90;;;13.44;97.25;101589.69;6181619;23;20014;-88
2021/08/24 02:12:48;;;;;;;4.43;2.55;;;11.90;99.90;;;13.38;97.41;101593.09;6183393;23;20071;-88
2021/08/24 02:15:21;;;;;;;3.88;2.97;;;11.80;99.90;;;13.30;97.62;101592.06;6160243;23;20013;-89
2021/08/24 02:17:48;;;;;;;4.35;2.95;;;11.80;99.90;;;13.23;97.94;101593.84;6160583;23;20073;-89
2021/08/24 02:20:35;;;;;;;3.72;2.72;;;11.70;99.90;;;13.15;98.12;101593.63;6168363;23;20047;-83
2021/08/24 02:23:13;;;;;;;7.45;2.63;;;11.60;99.90;;;13.09;98.53;101594.22;6175817;23;20021;-88
2021/08/24 02:25:48;;;;;;;4.03;2.30;;;11.60;99.90;;;13.03;98.96;101592.78;6156693;23;20009;-89
2021/08/24 02:28:43;;;;;;;3.70;2.60;;;11.50;99.90;;;12.95;98.88;101593.72;6156611;23;20084;-86
2021/08/24 02:31:21;;;;;;;3.60;2.90;;;11.50;99.90;;;12.92;99.68;101598.03;6156653;23;20013;-87
2021/08/24 02:34:05;;;;;;;4.55;2.40;;;11.40;99.90;;;12.87;99.60;101603.91;6181553;23;20040;-87
2021/08/24 02:36:37;;;;;;;3.88;2.42;;;11.40;99.90;;;12.73;99.32;101605.41;6155962;23;20008;-87
2021/08/24 02:39:15;;;;;;;4.85;2.45;;;11.30;99.90;;;12.61;99.57;101601.44;6155413;23;20010;-87
2021/08/24 02:42:12;;;;;;;5.45;2.88;;;11.10;99.90;;;12.54;99.93;101606.78;6154983;23;20013;-91
2021/08/24 02:44:54;;;;;;;4.40;3.03;;;11.10;99.90;;;12.51;100.00;101604.69;6155640;23;20012;-85
2021/08/24 02:47:23;;;;;;;4.95;2.78;;;11.10;99.90;;;12.51;100.00;101609.47;6154759;23;20009;-89
2021/08/24 02:49:51;;;;;;;6.38;3.20;;;11.00;99.90;;;12.46;100.00;101607.69;6156258;23;20010;-86
2021/08/24 02:52:21;;;;;;;4.15;2.67;;;11.00;99.90;;;12.43;100.00;101607.56;6156640;23;20010;-90
2021/08/24 02:54:52;;;;;;;4.55;3.28;;;11.00;99.90;;;12.38;100.00;101599.41;6159568;23;20005;-87
2021/08/24 02:57:18;;;;;;;5.50;2.72;;;11.00;99.90;;;12.33;100.00;101594.81;6158234;23;20072;-89
2021/08/24 02:59:44;;;;;;;5.47;2.75;;;10.90;99.90;;;12.30;100.00;101594.69;6158315;23;20013;-88
2021/08/24 03:02:13;;;;;;;4.57;3.13;;;10.80;99.90;;;12.26;100.00;101599.38;6158199;23;20446;-88
2021/08/24 03:04:40;;;;;;;6.97;3.10;;;10.80;99.90;;;12.22;100.00;101604.03;6158843;23;20063;-84
2021/08/24 03:07:16;;;;;;;6.78;3.33;;;10.80;99.90;;;12.18;100.00;101600.28;6159786;23;20001;-87
2021/08/24 03:09:46;;;;;;;4.65;3.22;;;10.70;99.90;;;12.12;100.00;101597.72;6157862;23;20455;-88
2021/08/24 03:12:31;;;;;;;4.65;2.70;;;10.60;99.90;;;12.06;100.00;101592.69;6180883;23;20021;-90
2021/08/24 03:15:29;;;;;;;4.30;3.17;;;10.60;99.90;;;12.02;100.00;101600.94;6181069;23;20044;-89
2021/08/24 03:18:15;;;;;;;5.55;3.30;;;10.60;99.90;;;11.95;100.00;101595.09;6156751;23;20091;-84
2021/08/24 03:20:47;;;;;;;6.63;3.72;;;10.50;99.90;;;11.93;100.00;101605.81;6155920;23;20009;-86
2021/08/24 03:23:20;;;;;;;5.97;3.05;;;10.50;99.90;;;11.90;100.00;101600.09;6156519;23;20017;-88
2021/08/24 03:25:50;;;;;;;6.32;3.72;;;10.50;99.90;;;11.92;100.00;101609.78;6182140;23;20415;-88
2021/08/24 03:28:22;;;;;;;5.90;3.88;;;10.50;99.90;;;11.93;100.00;101599.41;6155877;23;20013;-88
2021/08/24 03:30:51;;;;;;;4.82;3.47;;;10.50;99.90;;;11.96;100.00;101612.69;6155973;23;20010;-88
2021/08/24 03:33:18;;;;;;;6.55;3.60;;;10.40;99.90;;;11.95;100.00;101617.47;6180700;23;20020;-88
2021/08/24 03:35:45;;;;;;;7.43;3.65;;;10.50;99.90;;;11.95;100.00;101616.66;6157052;23;20016;-87
2021/08/24 03:38:11;;;;;;;7.38;3.65;;;10.50;99.90;;;11.93;100.00;101616.19;6156790;23;20025;-86
2021/08/24 03:40:37;;;;;;;6.28;3.55;;;10.40;99.90;;;11.92;100.00;101623.75;6157087;23;20025;-88
2021/08/24 03:43:04;;;;;;;5.20;3.40;;;10.40;99.90;;;11.89;100.00;101613.25;6155847;23;20010;-89
2021/08/24 03:45:32;;;;;;;5.80;3.47;;;10.40;99.90;;;11.87;100.00;101620.38;6155766;23;20385;-85
2021/08/24 03:47:58;;;;;;;8.18;3.35;;;10.40;99.90;;;11.78;100.00;101630.84;6158287;23;20041;-88
2021/08/24 03:50:24;;;;;;;7.07;3.95;;;10.30;99.90;;;11.75;100.00;101625.91;6181013;23;20017;-89
2021/08/24 03:52:50;;;;;;;4.35;3.42;;;10.20;99.90;;;11.72;100.00;101637.81;6155539;23;20010;-88
2021/08/24 03:55:17;;;;;;;5.05;3.80;;;10.30;99.90;;;11.70;100.00;101621.34;6156284;23;20311;-90
2021/08/24 03:57:44;;;;;;;6.35;4.45;;;10.20;99.90;;;11.71;100.00;101630.56;6181231;23;20009;-90
2021/08/24 04:00:11;;;;;;;7.60;3.88;;;10.20;99.90;;;11.69;100.00;101633.66;6158926;23;20056;-89
2021/08/24 04:02:37;;;;;;;5.00;3.60;;;10.20;99.90;;;11.68;100.00;101642.41;6156263;23;20009;-87
2021/08/24 04:05:04;;;;;;;4.75;3.45;;;10.30;99.90;;;11.64;100.00;101636.66;6183223;23;20447;-89
2021/08/24 04:07:32;;;;;;;6.53;4.53;;;10.20;99.90;;;11.57;100.00;101630.78;6158544;23;20056;-90
2021/08/24 04:09:58;;;;;;;6.05;3.60;;;10.20;99.90;;;11.54;100.00;101628.69;6113998;23;1080449;-90
2021/08/24 04:12:25;;;;;;;7.97;3.88;;;10.10;99.90;;;11.52;100.00;101639.41;6184949;23;20005;-88
2021/08/24 04:14:51;;;;;;;7.15;3.63;;;10.10;99.90;;;11.48;100.00;101630.88;6160014;23;20343;-91
2021/08/24 04:17:18;;;;;;;4.50;3.50;;;10.10;99.90;;;11.46;100.00;101627.56;6159726;23;20016;-89
2021/08/24 04:19:44;;;;;;;7.03;4.18;;;10.00;99.90;;;11.50;100.00;101631.34;6161524;23;20009;-89
2021/08/24 04:22:18;;;;;;;5.78;3.50;;;10.00;99.90;;;11.50;100.00;101620.16;6161324;23;20006;-88
2021/08/24 04:24:44;;;;;;;5.95;3.33;;;10.10;99.90;;;11.49;100.00;101632.47;6161979;23;20025;-87
2021/08/24 04:27:13;;;;;;;5.20;3.25;;;10.10;99.90;;;11.45;100.00;101633.53;6162788;23;20002;-87
2021/08/24 04:29:39;;;;;;;7.18;4.03;;;10.00;99.90;;;11.46;100.00;101635.19;6162028;23;20036;-92
2021/08/24 04:32:06;;;;;;;7.90;3.88;;;10.00;99.90;;;11.46;100.00;101641.56;6163860;23;20100;-93
2021/08/24 04:34:33;;;;;;;7.00;3.50;;;10.00;99.90;;;11.45;100.00;101637.16;6164707;23;20010;-91
2021/08/24 04:36:58;;;;;;;5.75;3.50;;;10.00;99.90;;;11.44;100.00;101631.88;6162619;23;20037;-90
2021/08/24 04:39:24;;;;;;;5.55;3.78;;;10.00;99.90;;;11.43;100.00;101642.25;6172224;23;20005;-89
2021/08/24 04:41:50;;;;;;;4.43;2.95;;;10.00;99.90;;;11.42;100.00;101651.00;6177211;23;20077;-85
2021/08/24 04:44:16;;;;;;;8.02;3.53;;;9.90;99.90;;;11.42;100.00;101645.41;6159945;23;20010;-88
2021/08/24 04:46:42;;;;;;;5.35;3.92;;;9.90;99.90;;;11.41;100.00;101652.16;6157797;23;20001;-89
2021/08/24 04:49:09;;;;;;;8.35;4.15;;;9.90;99.90;;;11.42;100.00;101653.78;6159388;23;20017;-85
2021/08/24 04:51:35;;;;;;;6.00;4.05;;;9.90;99.90;;;11.49;100.00;101645.69;6157746;23;20410;-90
2021/08/24 04:54:01;;;;;;;7.95;4.03;;;10.00;99.90;;;11.58;100.00;101660.41;6157055;23;20014;-90
2021/08/24 04:56:26;;;;;;;7.28;4.20;;;10.10;99.90;;;11.61;100.00;101659.75;6181773;23;20016;-88
2021/08/24 04:58:52;;;;;;;5.32;3.70;;;10.10;99.90;;;11.61;100.00;101659.75;6156108;23;20041;-90
2021/08/24 05:01:18;;;;;;;4.38;3.28;;;10.10;99.90;;;11.63;100.00;101658.22;6158493;23;20008;-86
2021/08/24 05:03:44;;;;;;;8.85;3.88;;;10.10;99.90;;;11.67;100.00;101666.78;6157265;23;20018;-90
2021/08/24 05:06:10;;;;;;;5.38;3.40;;;10.20;99.90;;;11.72;100.00;101666.56;6158589;23;20439;-90
2021/08/24 05:08:35;;;;;;;6.65;4.00;;;10.20;99.90;;;11.81;100.00;101663.72;6160598;23;20025;-89
2021/08/24 05:11:01;;;;;;;5.85;3.40;;;10.30;99.90;;;11.88;100.00;101659.19;6162344;23;20014;-86
2021/08/24 05:13:27;;;;;;;7.75;3.83;;;10.30;99.90;;;11.96;100.00;101661.13;6158156;23;20048;-91
2021/08/24 05:15:53;;;;;;;10.35;4.20;;;10.40;99.90;;;12.01;100.00;101658.09;6180345;23;20440;-90
2021/08/24 05:18:20;;;;;;;8.02;4.10;;;10.50;99.90;;;12.06;100.00;101659.88;6156173;23;20426;-90
2021/08/24 05:20:45;;;;;;;7.05;3.63;;;10.50;99.90;;;12.10;100.00;101663.63;6159978;23;20010;-86
2021/08/24 05:23:11;;;;;;;5.60;3.67;;;10.50;99.90;;;12.13;100.00;101662.94;6158189;23;20384;-90
2021/08/24 05:25:38;;;;;;;7.53;3.75;;;10.60;99.90;;;12.21;100.00;101669.59;6158510;23;20006;-89
2021/08/24 05:28:05;;;;;;;6.43;3.72;;;10.60;99.90;;;12.29;100.00;101661.13;6156113;23;20499;-89
2021/08/24 05:30:32;;;;;;;7.22;3.83;;;10.70;99.90;;;12.43;100.00;101674.81;6156481;23;20441;-88
2021/08/24 05:32:59;;;;;;;6.00;3.40;;;10.80;99.90;;;12.50;100.00;101672.28;6158165;23;20009;-89
2021/08/24 05:35:25;;;;;;;5.57;3.28;;;10.90;99.90;;;12.58;100.00;101679.78;6157948;23;20012;-88
2021/08/24 05:37:51;;;;;;;7.75;3.30;;;10.90;99.90;;;12.72;100.00;101682.25;6158085;23;20010;-90
2021/08/24 05:40:18;;;;;;;5.40;3.45;;;11.00;99.90;;;12.91;100.00;101686.13;6157796;23;20105;-89
2021/08/24 05:42:44;;;;;;;7.60;3.38;;;11.20;99.90;;;13.14;100.00;101686.53;6157726;23;20010;-89
2021/08/24 05:45:11;;;;;;;8.73;5.07;;;11.40;99.90;;;13.41;100.00;101690.63;6157588;23;20006;-88
2021/08/24 05:47:37;;;;;;;11.05;4.70;;;11.60;99.90;;;13.65;100.00;101676.53;6157614;23;20029;-90
2021/08/24 05:50:07;;;;;;;11.98;4.55;;;11.80;99.90;;;13.90;100.00;101691.34;6182498;23;20017;-89
2021/08/24 05:52:33;;;;;;;7.47;4.38;;;12.00;99.90;;;14.10;100.00;101698.75;6182458;23;20466;-89
2021/08/24 05:54:59;;;;;;;8.32;3.75;;;12.10;99.90;;;14.36;100.00;101690.72;6184152;23;20033;-88
2021/08/24 05:57:28;;;;;;;8.75;3.72;;;12.30;99.90;;;14.59;100.00;101694.56;6160639;23;20005;-90
2021/08/24 05:59:55;;;;;;;9.95;4.60;;;12.50;99.90;;;14.90;100.00;101696.59;6159908;23;20010;-91
2021/08/24 06:02:21;;;;;;;7.22;4.28;;;12.70;99.90;;;15.16;99.07;101693.22;6161860;23;20053;-89
2021/08/24 06:04:49;;;;;;;8.30;5.15;;;13.00;99.90;;;15.41;97.94;101694.66;6160170;23;20076;-90
2021/08/24 06:07:15;;;;;;;9.88;5.55;;;13.20;99.90;;;15.70;96.48;101696.19;6161213;23;20008;-92
2021/08/24 06:09:41;;;;;;;11.82;6.18;;;13.50;99.90;;;16.05;94.91;101696.16;6153004;23;20096;-84
2021/08/24 06:12:08;;;;;;;10.93;4.97;;;13.70;99.90;;;16.41;93.05;101694.88;6156270;23;20009;-88
2021/08/24 06:14:34;;;;;;;8.35;5.50;;;14.00;99.90;;;16.66;89.99;101699.03;6155928;23;20142;-88
2021/08/24 06:16:59;;;;;;;10.30;5.70;;;14.30;99.90;;;16.97;88.04;101710.09;6156242;23;20009;-86
2021/08/24 06:19:29;;;;;;;7.63;5.20;;;14.70;99.90;;;17.12;85.78;101705.47;6156597;23;20006;-85
2021/08/24 06:22:00;;;;;;;6.60;4.95;;;14.90;99.90;;;17.39;85.58;101701.53;6156012;23;20312;-87
2021/08/24 06:24:27;;;;;;;9.93;5.30;;;15.10;99.90;;;17.59;83.93;101699.44;6158931;23;20009;-85
2021/08/24 06:26:53;;;;;;;7.72;5.72;;;15.30;99.90;;;17.70;82.88;101708.88;6162195;23;20021;-88
2021/08/24 06:29:20;;;;;;;7.60;5.55;;;15.50;99.90;;;17.82;82.06;101703.00;6166335;23;20014;-85
2021/08/24 06:31:52;;;;;;;11.25;5.80;;;15.60;99.90;;;17.97;81.57;101710.50;6164402;23;20033;-86
2021/08/24 06:34:22;;;;;;;10.60;5.57;;;15.80;99.90;;;18.00;80.72;101706.91;6164701;23;20036;-87
2021/08/24 06:36:49;;;;;;;13.45;6.25;;;15.90;99.90;;;18.06;80.53;101708.19;6171084;23;20032;-87
2021/08/24 06:39:16;;;;;;;8.65;5.15;;;15.90;99.90;;;18.02;80.23;101712.97;6139901;23;20315;-88
2021/08/24 06:41:42;;;;;;;13.70;6.18;;;15.90;99.90;;;18.11;78.41;101705.00;6163103;23;20098;-87
2021/08/24 06:44:11;;;;;;;8.93;6.00;;;16.00;99.90;;;18.20;78.69;101699.91;6190555;23;20495;-88
2021/08/24 06:46:38;;;;;;;7.63;5.03;;;16.10;99.90;;;18.34;78.56;101702.06;6162453;23;20455;-87
2021/08/24 06:49:05;;;;;;;9.95;5.40;;;16.20;99.90;;;18.54;76.52;101705.56;6159552;23;20009;-89
2021/08/24 06:51:33;;;;;;;8.10;4.47;;;16.40;99.90;;;18.72;76.54;101701.72;6159355;23;20029;-85
2021/08/24 06:54:00;;;;;;;7.80;5.10;;;16.50;99.90;;;18.98;75.78;101697.09;6160626;23;20029;-86
2021/08/24 06:56:26;;;;;;;11.50;5.43;;;16.80;99.90;;;19.14;74.81;101701.31;6196457;23;20032;-86
2021/08/24 06:58:56;;;;;;;10.27;5.28;;;16.90;99.90;;;19.33;74.51;101709.56;6163517;23;20097;-87
2021/08/24 07:01:24;;;;;;;8.02;5.15;;;17.20;99.90;;;19.46;74.29;101710.09;6166400;23;20006;-89
2021/08/24 07:03:52;;;;;;;10.02;6.63;;;17.30;99.90;;;19.52;73.85;101705.72;6166199;23;20359;-89
2021/08/24 07:06:18;;;;;;;8.52;6.15;;;17.40;99.90;;;19.48;73.04;101710.53;6164439;23;20006;-88
2021/08/24 07:08:44;;;;;;;11.10;6.45;;;17.50;99.90;;;19.56;71.40;101706.53;6166135;23;20013;-87
2021/08/24 07:11:10;;;;;;;11.07;5.53;;;17.60;99.90;;;19.59;69.56;101707.75;6165147;23;20474;-87
2021/08/24 07:13:36;;;;;;;10.15;5.55;;;17.60;99.90;;;19.65;70.30;101709.03;6164693;23;20064;-86
2021/08/24 07:16:09;;;;;;;9.27;5.88;;;17.60;99.90;;;19.81;68.13;101709.56;6165011;23;20371;-88
2021/08/24 07:18:36;;;;;;;9.70;5.53;;;17.80;99.90;;;19.89;69.77;101711.22;6168480;23;20061;-89
2021/08/24 07:21:03;;;;;;;8.82;5.40;;;17.90;99.90;;;19.97;67.94;101707.22;6165687;23;20006;-87
2021/08/24 07:23:30;;;;;;;9.10;5.70;;;17.90;99.90;;;20.23;68.74;101714.59;6171682;23;20012;-85
2021/08/24 07:25:56;;;;;;;11.65;5.75;;;18.10;99.90;;;20.46;67.63;101715.13;6170666;23;20001;-86
2021/08/24 07:28:22;;;;;;;10.02;6.15;;;18.30;99.90;;;20.57;66.17;101720.88;6165745;23;20032;-88
2021/08/24 07:30:53;;;;;;;8.60;5.68;;;18.40;99.90;;;20.80;66.27;101724.19;6168709;23;20010;-90
2021/08/24 07:33:22;;;;;;;10.43;3.88;;;18.60;99.90;;;20.66;64.14;101722.09;6174948;23;20012;-90
2021/08/24 07:35:48;;;;;;;9.98;3.75;;;18.70;99.90;;;20.80;63.82;101722.16;6170060;23;20209;-88
2021/08/24 07:38:18;;;;;;;6.25;3.47;;;18.80;99.90;;;20.74;63.05;101722.94;6165072;23;20314;-88
2021/08/24 07:40:46;;;;;;;6.90;3.75;;;18.80;99.90;;;20.75;62.29;101722.53;6165652;23;20455;-88
2021/08/24 07:43:18;;;;;;;5.05;3.35;;;18.90;99.90;;;21.16;62.64;101725.06;6151366;23;20068;-88
2021/08/24 07:45:46;;;;;;;5.40;3.47;;;19.10;99.90;;;21.30;60.81;101725.06;6146181;23;20005;-90
2021/08/24 07:48:13;;;;;;;6.28;3.15;;;19.20;99.90;;;21.25;60.18;101720.63;6164541;23;20048;-87
2021/08/24 07:50:39;;;;;;;5.93;3.85;;;19.20;99.90;;;21.33;59.67;101725.06;6164814;23;20466;-86
2021/08/24 07:53:06;;;;;;;5.35;3.08;;;19.20;99.90;;;21.56;59.58;101727.50;6164383;23;20009;-88
2021/08/24 07:55:34;;;;;;;6.47;3.38;;;19.30;99.90;;;21.68;57.49;101732.75;6172914;23;20005;-85
2021/08/24 07:58:02;;;;;;;4.53;3.47;;;19.50;99.90;;;21.79;57.62;101730.72;6181577;23;20008;-86
2021/08/24 08:00:28;;;;;;;6.20;3.38;;;19.70;99.90;;;22.10;58.56;101729.03;6168233;23;20009;-93
2021/08/24 08:02:53;;;;;;;5.93;3.30;;;19.90;99.90;;;22.16;57.16;101733.09;6164004;23;20029;-88
2021/08/24 08:05:20;;;;;;;6.70;3.20;;;20.10;99.90;;;22.20;56.44;101735.91;6163882;23;20067;-88
2021/08/24 08:07:49;;;;;;;6.05;2.97;;;20.20;99.90;;;22.43;55.88;101736.25;6166213;23;20006;-90
2021/08/24 08:10:16;;;;;;;5.10;2.92;;;20.20;99.90;;;22.69;56.40;101732.06;6194842;23;20072;-89
2021/08/24 08:12:43;;;;;;;5.80;3.33;;;20.40;99.90;;;22.98;54.93;101736.38;6168247;23;20087;-94
2021/08/24 08:15:13;;;;;;;4.65;3.10;;;20.60;99.90;;;23.23;53.50;101737.00;6168279;23;20060;-91
2021/08/24 08:17:39;;;;;;;5.13;3.30;;;20.80;99.90;;;23.41;52.87;101737.69;6168170;23;20429;-90
2021/08/24 08:20:08;;;;;;;3.95;2.63;;;21.00;99.90;;;23.47;52.42;101738.84;6169206;23;20009;-88
2021/08/24 08:22:36;;;;;;;3.53;2.22;;;21.10;99.90;;;23.35;49.19;101747.88;6203002;23;20090;-89
2021/08/24 08:25:06;;;;;;;5.25;2.20;;;21.10;99.90;;;23.06;48.12;101735.09;6170977;23;20005;-90
2021/08/24 08:27:32;;;;;;;5.05;2.30;;;21.00;99.90;;;23.19;50.38;101739.06;6171973;23;20073;-90
2021/08/24 08:29:58;;;;;;;4.00;2.65;;;21.00;99.90;;;22.83;50.52;101735.63;6178420;23;20482;-90
2021/08/24 08:32:31;;;;;;;5.88;2.67;;;20.90;99.90;;;23.28;49.60;101738.59;6178515;23;20004;-87
2021/08/24 08:34:59;;;;;;;5.65;2.72;;;21.00;99.90;;;23.59;48.85;101729.00;6183195;23;20259;-88
2021/08/24 08:37:26;;;;;;;10.85;2.50;;;21.30;99.90;;;23.83;47.70;101741.38;6207956;23;20069;-84
2021/08/24 08:39:52;;;;;;;4.03;2.55;;;21.40;99.90;;;24.04;48.87;101732.59;6173549;23;20012;-86
2021/08/24 08:43:09;;;;;;;4.18;2.47;;;21.70;99.90;;;24.13;46.34;101733.75;6201871;23;20012;-87
2021/08/24 08:45:50;;;;;;;5.40;2.15;;;21.70;97.20;;;24.29;46.23;101727.44;6169309;23;20312;-88
2021/08/24 08:48:48;;;;;;;2.72;1.85;;;22.00;96.40;;;24.52;45.92;101727.56;6170928;23;20009;-86
2021/08/24 08:51:35;;;;;;;3.72;2.10;;;22.20;95.40;;;24.81;45.67;101730.00;6198152;23;20004;-88
2021/08/24 08:55:23;;;;;;;3.83;2.38;;;22.40;95.20;;;24.69;44.43;101724.88;6192889;23;20032;-90
2021/08/24 08:58:02;;;;;;;4.75;2.13;;;22.50;95.10;;;24.94;44.68;101733.94;6191612;23;20001;-89
2021/08/24 09:00:56;;;;;;;4.38;2.00;;;22.60;91.80;;;24.71;43.78;101728.09;6173343;23;20009;-89
2021/08/24 09:03:53;;;;;;;5.00;2.28;;;22.60;90.60;;;24.93;42.45;101724.53;6163554;23;20032;-89
2021/08/24 09:06:27;;;;;;;6.47;1.90;;;22.70;90.00;;;24.40;42.91;101728.09;6166793;23;20012;-88
2021/08/24 09:08:57;;;;;;;3.47;1.85;;;22.50;85.80;;;24.50;44.31;101720.63;6175846;23;20013;-88
2021/08/24 09:11:38;;;;;;;4.32;1.98;;;22.30;88.30;;;24.60;42.93;101725.41;6167334;23;20032;-89
2021/08/24 09:14:27;;;;;;;3.60;2.08;;;22.40;86.20;;;24.30;42.46;101714.78;6165518;23;20037;-89
2021/08/24 09:17:21;;;;;;;3.60;1.88;;;22.30;83.60;;;24.37;42.63;101726.09;6169952;23;20009;-88
2021/08/24 09:19:57;;;;;;;3.28;1.83;;;22.30;83.30;;;24.70;42.61;101723.63;6165877;23;20482;-91
2021/08/24 09:22:24;;;;;;;4.80;2.03;;;22.40;83.60;;;24.48;42.50;101728.81;6167915;23;20096;-91
2021/08/24 09:24:50;;;;;;;5.93;1.80;;;22.50;81.80;;;24.54;43.73;101732.81;6171921;23;20016;-87
2021/08/24 09:28:20;;;;;;;4.28;1.92;;;22.40;85.10;;;24.74;42.39;101719.50;6197116;23;20005;-89
2021/08/24 09:30:46;;;;;;;9.93;2.08;;;22.60;85.80;;;25.02;43.12;101730.53;6169883;23;20058;-89
2021/08/24 09:33:13;;;;;;;2.47;1.48;;;22.70;84.90;;;25.65;41.77;101727.88;6164466;23;20380;-88
2021/08/24 09:35:48;;;;;;;4.72;2.58;;;23.10;83.10;;;25.33;40.99;101724.75;6169130;23;20015;-87
2021/08/24 09:38:28;;;;;;;4.90;2.15;;;23.10;79.00;;;25.41;42.49;101718.47;6182245;23;20013;-87
2021/08/24 09:41:21;;;;;;;3.22;1.70;;;23.20;81.60;;;25.15;41.41;101719.28;6172309;23;20056;-89
2021/08/24 09:43:48;;;;;;;3.65;2.10;;;23.10;78.20;;;25.44;41.61;101714.72;6190705;23;20024;-88
2021/08/24 09:46:17;;;;;;;5.43;2.33;;;23.20;80.00;;;25.14;43.08;101720.56;6191490;23;20005;-86
2021/08/24 09:49:05;;;;;;;6.28;2.38;;;23.20;81.60;;;25.18;41.50;101715.56;6191311;23;20009;-86
2021/08/24 09:51:59;;;;;;;4.25;2.63;;;23.20;78.10;;;24.51;42.82;101717.34;6162976;23;20033;-89
2021/08/24 09:54:49;;;;;;;4.88;2.10;;;23.00;78.40;;;24.84;42.44;101727.13;6166021;23;20427;-88
2021/08/24 09:57:36;;;;;;;5.47;2.25;;;23.00;78.60;;;25.05;41.80;101723.13;6167299;23;20031;-88
2021/08/24 10:00:35;;;;;;;4.55;2.10;;;23.10;78.10;;;25.32;39.19;101720.25;6162257;23;20457;-91
2021/08/24 10:03:31;;;;;;;4.43;2.22;;;23.20;74.00;;;25.37;39.78;101720.56;6189353;23;20001;-89
2021/08/24 10:06:15;;;;;;;6.53;2.47;;;23.30;74.60;;;25.62;39.27;101717.31;6189758;23;20005;-92
2021/08/24 10:08:44;;;;;;;5.70;2.22;;;23.40;72.70;;;25.29;38.83;101715.41;6166665;23;20009;-89
2021/08/24 10:11:33;;;;;;;5.28;2.47;;;23.30;71.60;;;25.09;39.74;101713.28;6163072;23;20016;-90
2021/08/24 10:14:26;;;;;;;5.70;2.50;;;23.30;72.30;;;24.64;41.33;101706.16;6163120;23;20443;-90
2021/08/24 10:16:58;;;;;;;5.57;2.42;;;22.90;73.00;;;24.85;41.00;101708.72;6166889;23;20040;-89
2021/08/24 10:19:36;;;;;;;3.97;2.08;;;22.90;73.90;;;25.05;39.61;101718.22;6163919;23;20020;-89
2021/08/24 10:22:22;;;;;;;6.60;2.47;;;23.20;72.50;;;25.35;38.07;101727.97;6163442;23;20009;-89
2021/08/24 10:25:03;;;;;;;4.60;2.10;;;23.40;71.60;;;25.30;39.29;101725.59;6163491;23;20009;-88
2021/08/24 10:27:45;;;;;;;3.35;2.10;;;23.40;70.70;;;25.51;38.54;101719.53;6166292;23;20005;-87
2021/08/24 10:30:38;;;;;;;4.43;2.20;;;23.40;69.60;;;25.71;39.02;101723.28;6163736;23;20009;-90
2021/08/24 10:33:05;;;;;;;5.90;2.40;;;23.50;69.90;;;25.95;39.73;101724.84;6164099;23;20013;-89
2021/08/24 10:35:42;;;;;;;4.72;2.40;;;23.60;72.50;;;25.55;39.08;101711.72;6188045;23;20091;-89
2021/08/24 10:38:55;;;;;;;3.80;2.13;;;23.30;70.70;;;25.14;39.65;101720.56;6165115;23;20394;-88